createdAt,value
2018-05-06T00:01:04.589Z,9.50
2018-05-06T00:03:32.897Z,6.33
2018-05-06T00:06:00.433Z,12.43
2018-05-06T00:08:28.720Z,11.33
2018-05-06T00:10:56.238Z,9.10
2018-05-06T00:13:24.118Z,7.10
2018-05-06T00:15:52.371Z,5.90
2018-05-06T00:18:20.677Z,7.30
2018-05-06T00:20:48.972Z,8.90
2018-05-06T00:23:16.546Z,7.40
2018-05-06T00:25:44.067Z,5.20
2018-05-06T00:28:11.681Z,7.33
2018-05-06T00:30:39.972Z,5.43
2018-05-06T00:33:08.256Z,8.70
2018-05-06T00:35:36.536Z,8.30
2018-05-06T00:38:04.835Z,9.87
2018-05-06T00:40:33.109Z,8.00
2018-05-06T00:43:00.629Z,10.03
2018-05-06T00:45:28.141Z,8.23
2018-05-06T00:47:55.685Z,4.60
2018-05-06T00:50:23.212Z,4.60
2018-05-06T00:52:51.507Z,6.80
2018-05-06T00:55:19.021Z,8.80
2018-05-06T00:57:46.527Z,10.00
2018-05-06T01:00:14.940Z,5.97
2018-05-06T01:02:42.520Z,10.40
2018-05-06T01:05:10.053Z,5.30
2018-05-06T01:07:37.584Z,9.23
2018-05-06T01:10:05.104Z,9.13
2018-05-06T01:12:33.368Z,7.50
2018-05-06T01:15:00.897Z,13.77
2018-05-06T01:17:28.425Z,6.57
2018-05-06T01:19:55.958Z,6.50
2018-05-06T01:22:23.458Z,8.77
2018-05-06T01:24:52.482Z,7.90
2018-05-06T01:27:20.027Z,13.60
2018-05-06T01:29:47.545Z,15.80
2018-05-06T01:32:15.041Z,7.93
2018-05-06T01:34:42.588Z,15.30
2018-05-06T01:37:10.112Z,12.07
2018-05-06T01:39:37.621Z,8.40
2018-05-06T01:42:05.895Z,10.57
2018-05-06T01:44:34.217Z,8.90
2018-05-06T01:47:01.713Z,10.73
2018-05-06T01:49:29.283Z,12.93
2018-05-06T01:51:56.845Z,8.33
2018-05-06T01:54:24.416Z,7.97
2018-05-06T01:56:51.928Z,18.43
2018-05-06T01:59:19.452Z,12.07
2018-05-06T02:01:46.969Z,21.40
2018-05-06T02:04:14.506Z,18.47
2018-05-06T02:06:42.056Z,19.83
2018-05-06T02:09:09.584Z,23.00
2018-05-06T02:11:37.105Z,16.73
2018-05-06T02:14:04.627Z,26.67
2018-05-06T02:16:32.138Z,34.77
2018-05-06T02:18:59.707Z,43.87
2018-05-06T02:21:27.972Z,34.00
2018-05-06T02:23:55.489Z,30.13
2018-05-06T02:26:23.037Z,28.70
2018-05-06T02:28:51.308Z,34.87
2018-05-06T02:31:19.629Z,35.20
2018-05-06T02:33:47.148Z,34.17
2018-05-06T02:36:14.714Z,31.83
2018-05-06T02:38:42.236Z,34.60
2018-05-06T02:41:10.545Z,32.93
2018-05-06T02:43:38.081Z,29.77
2018-05-06T02:46:06.385Z,26.87
2018-05-06T02:48:34.654Z,29.50
2018-05-06T02:51:02.988Z,26.47
2018-05-06T02:53:30.524Z,22.53
2018-05-06T02:55:58.851Z,22.60
2018-05-06T02:58:26.392Z,30.57
2018-05-06T03:00:54.708Z,20.60
2018-05-06T03:03:22.239Z,20.83
2018-05-06T03:05:49.796Z,23.40
2018-05-06T03:08:17.368Z,17.10
2018-05-06T03:10:44.909Z,23.67
2018-05-06T03:13:12.446Z,22.90
2018-05-06T03:15:39.987Z,19.20
2018-05-06T03:18:09.002Z,17.37
2018-05-06T03:20:36.596Z,16.37
2018-05-06T03:23:04.907Z,19.97
2018-05-06T03:25:32.449Z,16.80
2018-05-06T03:28:00.731Z,11.90
2018-05-06T03:30:28.274Z,11.47
2018-05-06T03:32:55.817Z,10.80
2018-05-06T03:35:23.401Z,10.63
2018-05-06T03:37:50.933Z,9.17
2018-05-06T03:40:19.213Z,8.07
2018-05-06T03:42:47.513Z,14.30
2018-05-06T03:45:15.815Z,11.47
2018-05-06T03:47:43.388Z,11.97
2018-05-06T03:50:10.935Z,11.53
2018-05-06T03:52:38.447Z,11.13
2018-05-06T03:55:05.989Z,8.00
2018-05-06T03:57:45.353Z,9.10
2018-05-06T04:00:24.729Z,7.00
2018-05-06T04:02:52.233Z,10.43
2018-05-06T04:05:19.754Z,19.83
2018-05-06T04:07:47.395Z,10.40
2018-05-06T04:10:16.504Z,12.90
2018-05-06T04:12:44.102Z,9.70
2018-05-06T04:15:11.607Z,8.60
2018-05-06T04:17:39.159Z,10.00
2018-05-06T04:20:06.673Z,9.00
2018-05-06T04:22:34.969Z,11.43
2018-05-06T04:25:02.497Z,12.70
2018-05-06T04:27:30.152Z,11.47
2018-05-06T04:29:57.677Z,10.63
2018-05-06T04:32:25.190Z,10.53
2018-05-06T04:34:52.744Z,12.20
2018-05-06T04:37:21.073Z,15.90
2018-05-06T04:39:48.667Z,12.70
2018-05-06T04:42:16.241Z,17.43
2018-05-06T04:44:43.995Z,13.67
2018-05-06T04:47:11.522Z,11.83
2018-05-06T04:49:39.945Z,14.03
2018-05-06T04:52:07.473Z,12.20
2018-05-06T04:54:35.060Z,12.37
2018-05-06T04:57:03.367Z,14.20
2018-05-06T04:59:30.912Z,11.47
2018-05-06T05:01:58.428Z,13.13
2018-05-06T05:04:25.949Z,8.97
2018-05-06T05:06:53.465Z,12.57
2018-05-06T05:09:20.990Z,6.30
2018-05-06T05:11:48.493Z,12.37
2018-05-06T05:14:16.031Z,8.10
2018-05-06T05:16:43.531Z,8.50
2018-05-06T05:19:11.809Z,8.50
2018-05-06T05:21:40.114Z,7.93
2018-05-06T05:24:07.636Z,7.27
2018-05-06T05:26:35.192Z,9.50
2018-05-06T05:29:02.693Z,6.17
2018-05-06T05:31:30.240Z,4.00
2018-05-06T05:33:57.763Z,4.93
2018-05-06T05:36:26.062Z,3.80
2018-05-06T05:38:53.585Z,5.20
2018-05-06T05:41:21.105Z,6.20
2018-05-06T05:43:48.649Z,5.13
2018-05-06T05:46:16.216Z,3.73
2018-05-06T05:48:43.730Z,4.83
2018-05-06T05:51:11.495Z,3.60
2018-05-06T05:53:39.053Z,5.83
2018-05-06T05:56:07.334Z,4.90
2018-05-06T05:58:34.829Z,3.37
2018-05-06T06:01:02.523Z,3.20
2018-05-06T06:03:30.019Z,3.37
2018-05-06T06:05:57.551Z,2.70
2018-05-06T06:08:25.110Z,3.30
2018-05-06T06:10:53.700Z,6.23
2018-05-06T06:13:21.389Z,2.97
2018-05-06T06:15:48.955Z,3.33
2018-05-06T06:18:16.501Z,3.60
2018-05-06T06:20:44.069Z,5.43
2018-05-06T06:23:11.650Z,3.07
2018-05-06T06:25:40.206Z,4.60
2018-05-06T06:28:07.808Z,4.67
2018-05-06T06:30:35.318Z,3.58
2018-05-06T06:33:03.190Z,2.72
2018-05-06T06:35:31.517Z,3.22
2018-05-06T06:37:59.129Z,2.27
2018-05-06T06:40:26.833Z,4.68
2018-05-06T06:42:54.449Z,2.00
2018-05-06T06:45:22.184Z,2.83
2018-05-06T06:47:50.031Z,2.10
2018-05-06T06:50:18.316Z,2.90
2018-05-06T06:52:46.195Z,3.03
2018-05-06T06:55:14.515Z,2.33
2018-05-06T06:57:43.017Z,2.15
2018-05-06T07:00:10.567Z,3.05
2018-05-06T07:02:39.101Z,2.45
2018-05-06T07:05:06.738Z,3.92
2018-05-06T07:07:35.033Z,3.28
2018-05-06T07:10:02.577Z,3.20
2018-05-06T07:12:30.093Z,3.62
2018-05-06T07:14:57.674Z,2.42
2018-05-06T07:17:25.230Z,2.72
2018-05-06T07:19:52.799Z,2.10
2018-05-06T07:22:20.363Z,3.58
2018-05-06T07:24:49.185Z,1.90
2018-05-06T07:27:16.767Z,1.83
2018-05-06T07:29:44.304Z,1.60
2018-05-06T07:32:12.585Z,3.33
2018-05-06T07:34:40.219Z,3.28
2018-05-06T07:37:07.796Z,2.05
2018-05-06T07:39:35.330Z,2.33
2018-05-06T07:42:02.864Z,2.75
2018-05-06T07:44:30.488Z,2.33
2018-05-06T07:46:58.080Z,1.83
2018-05-06T07:49:25.629Z,1.65
2018-05-06T07:51:53.229Z,1.73
2018-05-06T07:54:20.840Z,2.03
2018-05-06T07:56:49.128Z,2.17
2018-05-06T07:59:16.695Z,1.33
2018-05-06T08:01:44.245Z,3.15
2018-05-06T08:04:11.820Z,1.80
2018-05-06T08:06:39.376Z,1.90
2018-05-06T08:09:07.151Z,1.40
2018-05-06T08:11:34.688Z,2.58
2018-05-06T08:14:02.242Z,1.62
2018-05-06T08:16:30.632Z,1.55
2018-05-06T08:18:58.113Z,1.30
2018-05-06T08:21:25.631Z,2.05
2018-05-06T08:23:53.187Z,1.37
2018-05-06T08:26:20.738Z,1.55
2018-05-06T08:28:48.279Z,1.40
2018-05-06T08:31:15.965Z,1.12
2018-05-06T08:33:44.175Z,0.90
2018-05-06T08:36:11.762Z,3.20
2018-05-06T08:38:39.345Z,1.58
2018-05-06T08:41:06.909Z,3.78
2018-05-06T08:43:34.523Z,2.20
2018-05-06T08:46:02.096Z,1.30
2018-05-06T08:48:29.605Z,2.17
2018-05-06T08:50:57.172Z,2.30
2018-05-06T08:53:25.487Z,2.65
2018-05-06T08:55:53.061Z,1.15
2018-05-06T08:58:20.578Z,1.10
2018-05-06T09:00:49.639Z,1.77
2018-05-06T09:03:17.149Z,1.30
2018-05-06T09:05:44.668Z,1.87
2018-05-06T09:08:12.199Z,1.15
2018-05-06T09:10:39.791Z,1.20
2018-05-06T09:13:08.129Z,1.55
2018-05-06T09:15:35.676Z,1.58
2018-05-06T09:18:03.430Z,4.95
2018-05-06T09:20:31.797Z,2.75
2018-05-06T09:22:59.301Z,0.88
2018-05-06T09:25:27.666Z,1.10
2018-05-06T09:27:56.703Z,1.00
2018-05-06T09:30:24.482Z,1.23
2018-05-06T09:32:52.373Z,3.40
2018-05-06T09:35:19.934Z,1.55
2018-05-06T09:37:48.449Z,2.15
2018-05-06T09:40:16.004Z,1.87
2018-05-06T09:42:43.522Z,2.70
2018-05-06T09:45:11.038Z,3.40
2018-05-06T09:47:40.038Z,5.00
2018-05-06T09:50:07.611Z,3.20
2018-05-06T09:52:35.879Z,4.90
2018-05-06T09:55:03.633Z,8.07
2018-05-06T09:57:31.230Z,7.70
2018-05-06T09:59:59.079Z,4.13
2018-05-06T10:02:26.571Z,4.53
2018-05-06T10:04:54.280Z,4.77
2018-05-06T10:07:22.864Z,3.90
2018-05-06T10:09:51.231Z,4.20
2018-05-06T10:12:19.667Z,5.80
2018-05-06T10:14:47.317Z,4.57
2018-05-06T10:17:15.072Z,6.03
2018-05-06T10:19:42.584Z,4.77
2018-05-06T10:22:10.980Z,6.83
2018-05-06T10:24:38.619Z,9.40
2018-05-06T10:27:06.246Z,3.83
2018-05-06T10:29:33.771Z,4.80
2018-05-06T10:32:02.053Z,5.10
2018-05-06T10:34:29.554Z,3.00
2018-05-06T10:36:57.873Z,4.80
2018-05-06T10:39:25.434Z,5.00
2018-05-06T10:41:52.961Z,4.17
2018-05-06T10:44:20.726Z,3.37
2018-05-06T10:46:48.235Z,4.73
2018-05-06T10:49:16.622Z,4.30
2018-05-06T10:51:44.956Z,4.63
2018-05-06T10:54:12.475Z,3.80
2018-05-06T10:56:40.852Z,4.17
2018-05-06T10:59:09.168Z,6.17
2018-05-06T11:01:37.784Z,2.90
2018-05-06T11:04:05.345Z,3.30
2018-05-06T11:06:32.889Z,6.07
2018-05-06T11:09:01.358Z,2.07
2018-05-06T11:11:29.189Z,8.40
2018-05-06T11:13:58.192Z,3.60
2018-05-06T11:16:29.729Z,2.90
2018-05-06T11:18:57.991Z,6.73
2018-05-06T11:21:25.500Z,7.30
2018-05-06T11:23:53.866Z,3.50
2018-05-06T11:26:21.636Z,3.70
2018-05-06T11:28:49.465Z,3.10
2018-05-06T11:31:16.993Z,2.73
2018-05-06T11:33:44.812Z,3.50
2018-05-06T11:36:16.664Z,2.60
2018-05-06T11:38:44.296Z,2.63
2018-05-06T11:41:12.142Z,2.20
2018-05-06T11:43:40.075Z,4.77
2018-05-06T11:46:08.301Z,3.97
2018-05-06T11:48:36.564Z,6.47
2018-05-06T11:51:05.689Z,3.37
2018-05-06T11:53:34.147Z,3.83
2018-05-06T11:56:01.663Z,2.67
2018-05-06T11:58:29.945Z,3.77
2018-05-06T12:00:58.283Z,3.13
2018-05-06T12:03:26.375Z,2.20
2018-05-06T12:05:54.104Z,4.17
2018-05-06T12:08:22.437Z,3.00
2018-05-06T12:10:49.967Z,2.83
2018-05-06T12:13:18.356Z,4.13
2018-05-06T12:15:47.639Z,3.57
2018-05-06T12:18:15.163Z,3.53
2018-05-06T12:20:42.657Z,2.37
2018-05-06T12:23:11.881Z,8.23
2018-05-06T12:25:39.700Z,2.93
2018-05-06T12:28:08.409Z,3.13
2018-05-06T12:30:35.943Z,2.20
2018-05-06T12:33:03.463Z,3.60
2018-05-06T12:35:31.172Z,3.40
2018-05-06T12:37:58.789Z,2.13
2018-05-06T12:40:27.133Z,3.20
2018-05-06T12:42:54.855Z,2.20
2018-05-06T12:45:23.192Z,6.07
2018-05-06T12:47:50.703Z,3.03
2018-05-06T12:50:18.980Z,3.80
2018-05-06T12:52:46.531Z,3.93
2018-05-06T12:55:14.062Z,6.80
2018-05-06T12:57:41.724Z,4.67
2018-05-06T13:00:10.433Z,3.80
2018-05-06T13:02:38.072Z,4.20
2018-05-06T13:05:06.389Z,4.07
2018-05-06T13:07:34.689Z,3.97
2018-05-06T13:10:02.184Z,4.73
2018-05-06T13:12:29.711Z,2.90
2018-05-06T13:14:58.003Z,2.20
2018-05-06T13:17:26.466Z,2.30
2018-05-06T13:19:53.981Z,4.90
2018-05-06T13:22:21.558Z,2.47
2018-05-06T13:24:49.171Z,3.17
2018-05-06T13:27:16.735Z,2.40
2018-05-06T13:29:44.260Z,2.27
2018-05-06T13:32:12.544Z,2.67
2018-05-06T13:34:40.048Z,2.60
2018-05-06T13:37:07.590Z,1.90
2018-05-06T13:39:35.903Z,6.93
2018-05-06T13:42:03.479Z,2.37
2018-05-06T13:44:31.072Z,2.63
2018-05-06T13:46:58.755Z,2.50
2018-05-06T13:49:26.252Z,1.67
2018-05-06T13:51:53.764Z,4.67
2018-05-06T13:54:21.289Z,4.10
2018-05-06T13:56:48.788Z,6.10
2018-05-06T13:59:17.276Z,3.70
2018-05-06T14:01:45.561Z,2.70
2018-05-06T14:04:14.021Z,2.73
2018-05-06T14:06:41.527Z,7.83
2018-05-06T14:09:09.839Z,3.40
2018-05-06T14:11:37.416Z,5.17
2018-05-06T14:14:04.949Z,6.50
2018-05-06T14:16:32.461Z,3.10
2018-05-06T14:18:59.998Z,2.80
2018-05-06T14:21:28.256Z,4.83
2018-05-06T14:23:55.777Z,4.00
2018-05-06T14:26:23.291Z,3.20
2018-05-06T14:28:50.917Z,5.30
2018-05-06T14:31:19.176Z,3.13
2018-05-06T14:33:46.703Z,3.60
2018-05-06T14:36:14.205Z,7.70
2018-05-06T14:38:41.769Z,3.20
2018-05-06T14:41:09.264Z,4.77
2018-05-06T14:43:36.784Z,3.67
2018-05-06T14:46:04.306Z,7.53
2018-05-06T14:48:33.360Z,6.60
2018-05-06T14:51:00.956Z,8.33
2018-05-06T14:53:28.494Z,4.03
2018-05-06T14:55:56.138Z,3.10
2018-05-06T14:58:23.633Z,3.37
2018-05-06T15:00:51.200Z,3.47
2018-05-06T15:03:19.499Z,4.47
2018-05-06T15:05:47.048Z,3.20
2018-05-06T15:08:15.333Z,5.93
2018-05-06T15:10:42.922Z,13.83
2018-05-06T15:13:11.324Z,2.60
2018-05-06T15:15:38.863Z,3.83
2018-05-06T15:18:06.448Z,4.40
2018-05-06T15:20:34.741Z,6.77
2018-05-06T15:23:02.999Z,6.47
2018-05-06T15:25:30.567Z,5.23
2018-05-06T15:27:58.175Z,8.30
2018-05-06T15:30:26.481Z,4.37
2018-05-06T15:32:53.988Z,7.43
2018-05-06T15:35:21.499Z,3.30
2018-05-06T15:37:49.773Z,4.13
2018-05-06T15:40:17.471Z,5.53
2018-05-06T15:42:45.770Z,5.93
2018-05-06T15:45:13.370Z,4.00
2018-05-06T15:47:40.940Z,7.00
2018-05-06T15:50:08.537Z,4.57
2018-05-06T15:52:36.043Z,3.77
2018-05-06T15:55:04.327Z,4.47
2018-05-06T15:57:31.811Z,3.53
2018-05-06T16:00:00.122Z,7.53
2018-05-06T16:02:58.165Z,3.87
2018-05-06T16:05:25.700Z,3.23
2018-05-06T16:07:53.397Z,6.50
2018-05-06T16:10:20.956Z,2.50
2018-05-06T16:12:48.468Z,2.37
2018-05-06T16:15:16.810Z,3.00
2018-05-06T16:17:44.351Z,4.23
2018-05-06T16:20:11.889Z,2.93
2018-05-06T16:22:39.581Z,3.83
2018-05-06T16:25:07.060Z,3.83
2018-05-06T16:27:34.568Z,2.37
2018-05-06T16:30:02.097Z,5.43
2018-05-06T16:32:30.372Z,2.03
2018-05-06T16:34:58.072Z,6.77
2018-05-06T16:37:25.614Z,3.40
2018-05-06T16:39:53.155Z,2.80
2018-05-06T16:42:20.709Z,3.80
2018-05-06T16:44:48.277Z,2.47
2018-05-06T16:47:15.766Z,5.93
2018-05-06T16:49:43.302Z,5.17
2018-05-06T16:52:10.794Z,3.33
2018-05-06T16:54:38.312Z,5.27
2018-05-06T16:57:05.819Z,5.00
2018-05-06T16:59:33.386Z,3.03
2018-05-06T17:02:00.925Z,4.77
2018-05-06T17:04:28.536Z,3.87
2018-05-06T17:06:56.125Z,6.77
2018-05-06T17:09:24.340Z,4.17
2018-05-06T17:11:51.869Z,2.63
2018-05-06T17:14:19.435Z,5.93
2018-05-06T17:16:46.958Z,2.90
2018-05-06T17:19:14.462Z,5.90
2018-05-06T17:21:42.808Z,4.23
2018-05-06T17:24:10.311Z,7.63
2018-05-06T17:26:37.914Z,3.30
2018-05-06T17:29:05.414Z,4.23
2018-05-06T17:31:32.948Z,5.10
2018-05-06T17:34:01.259Z,5.73
2018-05-06T17:36:28.800Z,7.70
2018-05-06T17:38:57.071Z,3.00
2018-05-06T17:41:24.594Z,3.13
2018-05-06T17:43:52.112Z,6.97
2018-05-06T17:46:19.638Z,4.67
2018-05-06T17:48:47.196Z,4.70
2018-05-06T17:51:14.766Z,2.90
2018-05-06T17:53:42.263Z,7.50
2018-05-06T17:56:09.800Z,7.57
2018-05-06T17:58:38.077Z,5.50
2018-05-06T18:01:06.382Z,6.00
2018-05-06T18:03:33.905Z,6.60
2018-05-06T18:06:01.425Z,7.57
2018-05-06T18:08:29.083Z,5.53
2018-05-06T18:10:57.362Z,4.20
2018-05-06T18:13:24.968Z,3.40
2018-05-06T18:15:52.531Z,4.67
2018-05-06T18:18:20.807Z,3.83
2018-05-06T18:20:49.135Z,5.63
2018-05-06T18:23:16.657Z,2.50
2018-05-06T18:25:44.194Z,3.10
2018-05-06T18:28:11.729Z,5.67
2018-05-06T18:30:40.039Z,7.23
2018-05-06T18:33:07.666Z,5.30
2018-05-06T18:35:36.067Z,3.37
2018-05-06T18:38:04.373Z,5.60
2018-05-06T18:40:31.898Z,4.37
2018-05-06T18:42:59.435Z,4.50
2018-05-06T18:45:26.931Z,4.27
2018-05-06T18:47:54.475Z,4.57
2018-05-06T18:50:22.154Z,5.50
2018-05-06T18:52:49.699Z,6.90
2018-05-06T18:55:18.016Z,3.60
2018-05-06T18:57:45.567Z,3.53
2018-05-06T19:00:13.065Z,7.97
2018-05-06T19:02:40.764Z,4.90
2018-05-06T19:05:08.650Z,5.50
2018-05-06T19:07:36.232Z,12.73
2018-05-06T19:10:03.832Z,4.70
2018-05-06T19:12:32.144Z,7.20
2018-05-06T19:14:59.658Z,7.87
2018-05-06T19:17:27.222Z,3.60
2018-05-06T19:19:54.760Z,12.60
2018-05-06T19:22:22.317Z,8.63
2018-05-06T19:24:50.370Z,5.53
2018-05-06T19:27:17.896Z,5.10
2018-05-06T19:29:45.510Z,3.67
2018-05-06T19:32:12.986Z,8.57
2018-05-06T19:34:40.502Z,2.97
2018-05-06T19:37:08.043Z,4.83
2018-05-06T19:39:36.375Z,4.77
2018-05-06T19:42:06.165Z,3.00
2018-05-06T19:44:32.192Z,4.47
2018-05-06T19:47:00.491Z,4.70
2018-05-06T19:49:28.763Z,3.60
2018-05-06T19:51:56.284Z,5.57
2018-05-06T19:54:23.944Z,4.07
2018-05-06T19:56:51.489Z,3.73
2018-05-06T19:59:19.751Z,6.53
2018-05-06T20:01:47.376Z,5.93
2018-05-06T20:04:14.876Z,2.70
2018-05-06T20:06:42.409Z,2.60
2018-05-06T20:09:10.704Z,3.30
2018-05-06T20:11:38.235Z,4.27
2018-05-06T20:14:05.743Z,5.23
2018-05-06T20:16:33.272Z,5.23
2018-05-06T20:19:00.815Z,7.10
2018-05-06T20:21:28.361Z,5.70
2018-05-06T20:23:55.880Z,4.27
2018-05-06T20:26:23.391Z,2.87
2018-05-06T20:28:51.672Z,4.67
2018-05-06T20:31:19.992Z,3.43
2018-05-06T20:33:47.507Z,6.07
2018-05-06T20:36:15.013Z,7.10
2018-05-06T20:38:43.291Z,7.23
2018-05-06T20:41:11.603Z,3.10
2018-05-06T20:43:39.857Z,3.07
2018-05-06T20:46:07.476Z,3.83
2018-05-06T20:48:34.986Z,3.47
2018-05-06T20:51:02.484Z,3.07
2018-05-06T20:53:30.771Z,4.27
2018-05-06T20:55:59.076Z,4.00
2018-05-06T20:58:27.369Z,5.73
2018-05-06T21:00:55.632Z,8.00
2018-05-06T21:03:23.166Z,3.47
2018-05-06T21:05:50.699Z,4.37
2018-05-06T21:08:18.972Z,5.10
2018-05-06T21:10:47.251Z,4.60
2018-05-06T21:13:14.848Z,3.63
2018-05-06T21:15:43.113Z,4.40
2018-05-06T21:18:10.710Z,5.17
2018-05-06T21:20:38.968Z,24.70
2018-05-06T21:23:06.474Z,5.17
2018-05-06T21:25:34.050Z,6.93
2018-05-06T21:28:01.612Z,8.60
2018-05-06T21:30:29.088Z,3.87
2018-05-06T21:32:56.662Z,4.10
2018-05-06T21:35:24.230Z,3.23
2018-05-06T21:37:52.501Z,7.00
2018-05-06T21:40:20.812Z,5.23
2018-05-06T21:42:48.315Z,4.10
2018-05-06T21:45:15.827Z,8.30
2018-05-06T21:47:43.329Z,5.33
2018-05-06T21:50:10.846Z,8.20
2018-05-06T21:52:38.347Z,4.17
2018-05-06T21:55:06.648Z,6.47
2018-05-06T21:57:34.168Z,10.63
2018-05-06T22:00:01.695Z,4.30
2018-05-06T22:02:29.186Z,4.07
2018-05-06T22:04:56.704Z,3.93
2018-05-06T22:07:24.204Z,4.13
2018-05-06T22:09:52.488Z,2.93
2018-05-06T22:12:20.813Z,4.47
2018-05-06T22:14:48.318Z,3.57
2018-05-06T22:17:15.815Z,3.67
2018-05-06T22:19:44.221Z,4.30
2018-05-06T22:22:11.781Z,3.03
2018-05-06T22:24:40.041Z,4.50
2018-05-06T22:27:07.569Z,11.83
2018-05-06T22:29:35.089Z,2.90
2018-05-06T22:32:02.634Z,6.90
2018-05-06T22:34:30.165Z,3.40
2018-05-06T22:36:58.552Z,3.70
2018-05-06T22:39:26.048Z,6.30
2018-05-06T22:41:53.569Z,4.37
2018-05-06T22:44:21.065Z,3.03
2018-05-06T22:46:49.363Z,2.83
2018-05-06T22:49:17.643Z,3.93
2018-05-06T22:51:46.020Z,2.70
2018-05-06T22:54:13.522Z,3.00
2018-05-06T22:56:41.043Z,4.20
2018-05-06T22:59:08.553Z,5.80
2018-05-06T23:01:36.836Z,5.47
2018-05-06T23:04:05.137Z,3.83
2018-05-06T23:06:32.675Z,3.10
2018-05-06T23:09:00.272Z,4.50
2018-05-06T23:11:28.670Z,5.43
2018-05-06T23:13:56.923Z,2.90
2018-05-06T23:16:24.491Z,3.90
2018-05-06T23:18:51.972Z,3.33
2018-05-06T23:21:19.491Z,4.20
2018-05-06T23:23:46.994Z,4.30
2018-05-06T23:26:14.523Z,4.80
2018-05-06T23:28:42.045Z,5.87
2018-05-06T23:31:09.541Z,2.87
2018-05-06T23:33:37.828Z,4.10
2018-05-06T23:36:05.331Z,4.50
2018-05-06T23:38:32.863Z,5.67
2018-05-06T23:41:00.377Z,3.97
2018-05-06T23:43:27.891Z,4.13
2018-05-06T23:45:55.383Z,4.57
2018-05-06T23:48:22.901Z,3.53
2018-05-06T23:50:50.408Z,4.83
2018-05-06T23:53:17.928Z,5.87
2018-05-06T23:55:45.494Z,4.30
2018-05-06T23:58:13.073Z,5.13
